createdAt,value
2023-11-19T00:00:18.064Z,32.42
2023-11-19T00:02:45.118Z,33.80
2023-11-19T00:05:13.354Z,32.17
2023-11-19T00:07:44.694Z,33.75
2023-11-19T00:10:12.403Z,33.15
2023-11-19T00:12:42.720Z,34.70
2023-11-19T00:15:13.022Z,35.47
2023-11-19T00:17:48.912Z,33.92
2023-11-19T00:20:18.117Z,34.00
2023-11-19T00:25:15.980Z,34.47
2023-11-19T00:27:45.941Z,32.20
2023-11-19T00:30:14.557Z,31.55
2023-11-19T00:32:42.336Z,31.25
2023-11-19T00:35:11.592Z,31.98
2023-11-19T00:37:38.742Z,32.00
2023-11-19T00:40:07.029Z,32.40
2023-11-19T00:42:34.049Z,31.48
2023-11-19T00:45:02.687Z,30.75
2023-11-19T00:47:29.772Z,30.13
2023-11-19T00:49:56.813Z,30.08
2023-11-19T00:52:23.888Z,28.73
2023-11-19T00:54:50.884Z,28.63
2023-11-19T00:57:17.874Z,27.33
2023-11-19T00:59:45.083Z,27.67
2023-11-19T01:02:12.124Z,25.83
2023-11-19T01:04:39.781Z,26.23
2023-11-19T01:07:07.338Z,23.40
2023-11-19T01:09:37.504Z,22.23
2023-11-19T01:12:05.031Z,20.08
2023-11-19T01:14:32.078Z,17.85
2023-11-19T01:16:59.268Z,17.25
2023-11-19T01:19:26.408Z,16.30
2023-11-19T01:21:53.607Z,15.75
2023-11-19T01:24:20.726Z,12.82
2023-11-19T01:26:47.983Z,13.15
2023-11-19T01:29:16.112Z,11.45
2023-11-19T01:31:48.334Z,12.38
2023-11-19T01:34:15.283Z,12.02
2023-11-19T01:36:42.216Z,12.02
2023-11-19T01:39:09.237Z,10.73
2023-11-19T01:41:37.304Z,11.75
2023-11-19T01:44:04.790Z,10.57
2023-11-19T01:46:34.215Z,10.65
2023-11-19T01:49:02.320Z,10.70
2023-11-19T01:51:29.846Z,10.55
2023-11-19T01:53:58.856Z,10.82
2023-11-19T01:56:28.115Z,10.40
2023-11-19T01:58:57.180Z,9.90
2023-11-19T02:01:24.971Z,9.95
2023-11-19T02:03:53.544Z,9.50
2023-11-19T02:06:21.207Z,9.88
2023-11-19T02:08:48.229Z,10.15
2023-11-19T02:11:15.219Z,8.63
2023-11-19T02:13:42.683Z,8.90
2023-11-19T02:16:10.697Z,9.40
2023-11-19T02:18:38.280Z,9.57
2023-11-19T02:21:06.552Z,9.48
2023-11-19T02:23:34.502Z,10.45
2023-11-19T02:26:06.998Z,9.27
2023-11-19T02:28:38.313Z,8.60
2023-11-19T02:31:06.257Z,9.93
2023-11-19T02:33:34.069Z,8.52
2023-11-19T02:36:00.954Z,8.95
2023-11-19T02:38:27.993Z,8.85
2023-11-19T02:40:55.119Z,8.95
2023-11-19T02:43:22.080Z,8.65
2023-11-19T02:45:49.008Z,9.13
2023-11-19T02:48:17.140Z,8.65
2023-11-19T02:50:44.127Z,9.18
2023-11-19T02:53:11.691Z,8.60
2023-11-19T02:55:40.529Z,8.95
2023-11-19T02:58:21.097Z,8.50
2023-11-19T03:00:55.419Z,8.82
2023-11-19T03:03:24.135Z,9.13
2023-11-19T03:05:51.175Z,8.07
2023-11-19T03:10:48.206Z,8.50
2023-11-19T03:13:15.847Z,9.80
2023-11-19T03:15:42.982Z,9.02
2023-11-19T03:18:10.486Z,9.15
2023-11-19T03:20:37.459Z,7.90
2023-11-19T03:23:04.586Z,8.25
2023-11-19T03:25:34.839Z,8.65
2023-11-19T03:28:03.579Z,7.95
2023-11-19T03:33:02.721Z,8.80
2023-11-19T03:35:31.554Z,8.10
2023-11-19T03:37:58.527Z,7.88
2023-11-19T03:40:26.443Z,7.70
2023-11-19T03:42:54.187Z,8.45
2023-11-19T03:45:21.104Z,8.65
2023-11-19T03:47:50.974Z,8.18
2023-11-19T03:50:19.153Z,9.05
2023-11-19T03:52:47.595Z,8.52
2023-11-19T03:55:14.535Z,8.00
2023-11-19T03:57:41.386Z,8.60
2023-11-19T04:00:11.863Z,8.75
2023-11-19T04:02:42.638Z,7.90
2023-11-19T04:05:11.113Z,8.63
2023-11-19T04:07:38.571Z,8.43
2023-11-19T04:10:06.315Z,8.02
2023-11-19T04:12:33.249Z,8.38
2023-11-19T04:15:02.191Z,7.80
2023-11-19T04:17:29.644Z,7.47
2023-11-19T04:19:57.145Z,8.48
2023-11-19T04:22:24.234Z,7.95
2023-11-19T04:24:52.400Z,8.48
2023-11-19T04:27:19.378Z,8.43
2023-11-19T04:29:48.081Z,7.93
2023-11-19T04:32:15.737Z,7.43
2023-11-19T04:34:42.742Z,7.97
2023-11-19T04:37:14.209Z,8.50
2023-11-19T04:39:41.383Z,8.45
2023-11-19T04:42:08.224Z,7.63
2023-11-19T04:44:35.217Z,8.30
2023-11-19T04:47:02.375Z,8.38
2023-11-19T04:49:29.636Z,8.68
2023-11-19T04:51:56.531Z,8.85
2023-11-19T04:54:23.403Z,9.18
2023-11-19T04:56:50.361Z,7.70
2023-11-19T04:59:17.263Z,9.27
2023-11-19T05:01:48.300Z,7.95
2023-11-19T05:04:16.236Z,8.80
2023-11-19T05:06:43.427Z,8.23
2023-11-19T05:09:10.735Z,9.27
2023-11-19T05:11:51.357Z,8.45
2023-11-19T05:14:21.312Z,8.98
2023-11-19T05:16:48.430Z,8.35
2023-11-19T05:19:15.757Z,9.00
2023-11-19T05:21:45.774Z,9.35
2023-11-19T05:24:15.604Z,8.38
2023-11-19T05:26:42.725Z,9.13
2023-11-19T05:29:09.859Z,9.20
2023-11-19T05:31:37.749Z,9.48
2023-11-19T05:34:05.975Z,9.80
2023-11-19T05:36:32.942Z,9.10
2023-11-19T05:38:59.797Z,9.65
2023-11-19T05:41:26.710Z,9.05
2023-11-19T05:43:53.742Z,9.85
2023-11-19T05:46:21.443Z,8.50
2023-11-19T05:48:49.142Z,9.10
2023-11-19T05:51:16.675Z,9.35
2023-11-19T05:53:44.037Z,9.55
2023-11-19T05:56:11.172Z,9.48
2023-11-19T05:58:38.883Z,9.30
2023-11-19T06:01:08.490Z,9.95
2023-11-19T06:03:35.564Z,9.48
2023-11-19T06:06:02.567Z,9.10
2023-11-19T06:08:30.688Z,9.35
2023-11-19T06:10:57.776Z,8.68
2023-11-19T06:13:25.520Z,8.85
2023-11-19T06:15:52.792Z,9.35
2023-11-19T06:18:21.557Z,8.82
2023-11-19T06:20:49.149Z,7.93
2023-11-19T06:23:16.083Z,9.15
2023-11-19T06:25:43.329Z,9.50
2023-11-19T06:28:10.856Z,9.20
2023-11-19T06:30:37.856Z,10.00
2023-11-19T06:33:05.002Z,9.35
2023-11-19T06:35:37.311Z,8.43
2023-11-19T06:38:05.722Z,9.93
2023-11-19T06:40:33.861Z,8.95
2023-11-19T06:43:01.092Z,11.23
2023-11-19T06:45:28.071Z,9.80
2023-11-19T06:47:55.142Z,9.38
2023-11-19T06:50:22.050Z,9.45
2023-11-19T06:52:49.055Z,9.30
2023-11-19T06:55:16.041Z,9.48
2023-11-19T06:57:42.880Z,9.32
2023-11-19T07:00:12.368Z,9.55
2023-11-19T07:02:39.593Z,8.93
2023-11-19T07:05:07.421Z,10.25
2023-11-19T07:07:34.310Z,9.63
2023-11-19T07:10:01.219Z,8.95
2023-11-19T07:12:28.136Z,9.05
2023-11-19T07:14:56.311Z,8.95
2023-11-19T07:17:25.384Z,9.35
2023-11-19T07:19:52.299Z,10.63
2023-11-19T07:22:19.273Z,9.82
2023-11-19T07:24:46.305Z,10.18
2023-11-19T07:27:13.909Z,9.60
2023-11-19T07:29:40.794Z,9.15
2023-11-19T07:32:09.502Z,9.48
2023-11-19T07:34:36.444Z,9.45
2023-11-19T07:37:04.013Z,10.27
2023-11-19T07:39:31.646Z,9.85
2023-11-19T07:41:58.581Z,9.13
2023-11-19T07:44:26.121Z,9.00
2023-11-19T07:46:53.208Z,9.80
2023-11-19T07:49:20.129Z,9.68
2023-11-19T07:51:46.994Z,9.68
2023-11-19T07:54:15.026Z,10.02
2023-11-19T07:56:42.089Z,9.55
2023-11-19T07:59:09.014Z,9.30
2023-11-19T08:01:35.934Z,9.63
2023-11-19T08:04:03.393Z,8.90
2023-11-19T08:06:30.536Z,8.93
2023-11-19T08:08:57.554Z,9.00
2023-11-19T08:11:24.569Z,9.63
2023-11-19T08:13:51.502Z,9.55
2023-11-19T08:16:18.408Z,9.63
2023-11-19T08:18:45.513Z,8.20
2023-11-19T08:21:12.626Z,9.75
2023-11-19T08:23:39.742Z,10.05
2023-11-19T08:26:07.750Z,8.60
2023-11-19T08:28:36.194Z,9.07
2023-11-19T08:31:05.654Z,9.25
2023-11-19T08:33:33.540Z,9.23
2023-11-19T08:36:01.237Z,8.70
2023-11-19T08:41:01.563Z,9.13
2023-11-19T08:43:28.978Z,8.13
2023-11-19T08:45:56.081Z,8.30
2023-11-19T08:48:22.985Z,9.05
2023-11-19T08:50:49.903Z,9.10
2023-11-19T08:53:16.866Z,8.98
2023-11-19T08:55:43.806Z,9.80
2023-11-19T08:58:10.735Z,9.93
2023-11-19T09:00:37.672Z,9.90
2023-11-19T09:03:05.118Z,8.88
2023-11-19T09:05:32.742Z,9.23
2023-11-19T09:07:59.738Z,8.82
2023-11-19T09:10:28.149Z,9.20
2023-11-19T09:12:57.694Z,9.10
2023-11-19T09:15:25.742Z,8.98
2023-11-19T09:17:52.882Z,9.48
2023-11-19T09:20:19.971Z,9.23
2023-11-19T09:22:47.219Z,9.05
2023-11-19T09:25:18.148Z,8.43
2023-11-19T09:27:45.644Z,8.80
2023-11-19T09:30:13.998Z,8.73
2023-11-19T09:32:41.739Z,8.57
2023-11-19T09:35:09.782Z,9.05
2023-11-19T09:37:36.756Z,9.35
2023-11-19T09:40:04.465Z,9.85
2023-11-19T09:42:44.769Z,10.07
2023-11-19T09:45:16.348Z,8.27
2023-11-19T09:47:47.297Z,9.20
2023-11-19T09:50:19.916Z,9.52
2023-11-19T09:52:50.731Z,8.35
2023-11-19T09:55:17.722Z,8.75
2023-11-19T09:57:45.693Z,8.18
2023-11-19T10:00:16.549Z,8.82
2023-11-19T10:02:47.700Z,9.95
2023-11-19T10:05:16.452Z,9.73
2023-11-19T10:07:44.186Z,8.50
2023-11-19T10:10:15.263Z,9.13
2023-11-19T10:12:57.754Z,9.10
2023-11-19T10:15:28.172Z,8.18
2023-11-19T10:17:59.261Z,7.88
2023-11-19T10:20:26.698Z,9.13
2023-11-19T10:22:56.004Z,8.32
2023-11-19T10:25:30.674Z,8.48
2023-11-19T10:27:58.451Z,9.07
2023-11-19T10:30:30.431Z,8.88
2023-11-19T10:33:10.942Z,9.77
2023-11-19T10:38:29.196Z,8.32
2023-11-19T10:40:56.215Z,8.30
2023-11-19T10:43:24.312Z,8.40
2023-11-19T10:45:51.811Z,7.65
2023-11-19T10:48:19.389Z,8.10
2023-11-19T10:50:50.022Z,8.52
2023-11-19T10:53:19.772Z,8.43
2023-11-19T10:55:49.059Z,8.15
2023-11-19T10:58:20.193Z,8.02
2023-11-19T11:00:52.164Z,7.93
2023-11-19T11:03:26.142Z,8.98
2023-11-19T11:05:54.346Z,8.10
2023-11-19T11:08:22.102Z,9.23
2023-11-19T11:10:57.718Z,8.30
2023-11-19T11:13:26.641Z,8.07
2023-11-19T11:15:55.957Z,8.02
2023-11-19T11:18:23.342Z,8.07
2023-11-19T11:20:51.784Z,8.40
2023-11-19T11:23:43.577Z,8.73
2023-11-19T11:26:41.753Z,8.77
2023-11-19T11:29:17.558Z,9.10
2023-11-19T11:32:02.418Z,7.30
2023-11-19T11:34:47.586Z,8.07
2023-11-19T11:37:37.854Z,8.00
2023-11-19T11:40:11.590Z,7.85
2023-11-19T11:42:39.292Z,7.78
2023-11-19T11:45:11.466Z,8.23
2023-11-19T11:47:45.201Z,7.95
2023-11-19T11:50:14.245Z,7.95
2023-11-19T11:52:59.921Z,8.15
2023-11-19T11:55:33.319Z,7.13
2023-11-19T11:58:00.751Z,7.82
2023-11-19T12:00:30.618Z,7.22
2023-11-19T12:03:00.291Z,7.22
2023-11-19T12:05:28.737Z,7.93
2023-11-19T12:07:56.926Z,7.25
2023-11-19T12:10:27.786Z,7.28
2023-11-19T12:12:59.671Z,8.15
2023-11-19T12:15:28.823Z,7.50
2023-11-19T12:17:56.840Z,7.72
2023-11-19T12:22:55.881Z,7.15
2023-11-19T12:25:23.741Z,7.40
2023-11-19T12:27:52.768Z,7.38
2023-11-19T12:30:27.526Z,7.30
2023-11-19T12:32:55.609Z,7.60
2023-11-19T12:35:23.615Z,6.93
2023-11-19T12:37:51.859Z,7.38
2023-11-19T12:40:26.712Z,7.15
2023-11-19T12:42:55.185Z,8.15
2023-11-19T12:45:24.913Z,7.05
2023-11-19T12:48:05.849Z,7.55
2023-11-19T12:50:55.182Z,7.93
2023-11-19T12:53:23.060Z,7.70
2023-11-19T12:55:51.273Z,7.95
2023-11-19T12:58:37.681Z,8.27
2023-11-19T13:01:06.508Z,6.15
2023-11-19T13:03:37.628Z,6.13
2023-11-19T13:06:05.241Z,5.85
2023-11-19T13:08:42.348Z,6.55
2023-11-19T13:11:09.550Z,6.32
2023-11-19T13:13:56.225Z,7.18
2023-11-19T13:16:23.601Z,7.03
2023-11-19T13:18:50.560Z,7.10
2023-11-19T13:21:17.429Z,7.63
2023-11-19T13:23:44.773Z,7.30
2023-11-19T13:26:12.487Z,7.05
2023-11-19T13:28:39.939Z,7.28
2023-11-19T13:31:07.102Z,7.05
2023-11-19T13:33:34.331Z,7.82
2023-11-19T13:36:06.786Z,7.82
2023-11-19T13:38:34.611Z,6.95
2023-11-19T13:41:01.682Z,6.65
2023-11-19T13:43:29.289Z,7.05
2023-11-19T13:45:57.234Z,6.70
2023-11-19T13:48:24.238Z,6.97
2023-11-19T13:50:51.634Z,6.38
2023-11-19T13:53:18.609Z,7.78
2023-11-19T13:55:45.475Z,8.23
2023-11-19T13:58:12.433Z,8.00
2023-11-19T14:00:39.408Z,7.80
2023-11-19T14:03:06.534Z,7.65
2023-11-19T14:08:05.156Z,7.88
2023-11-19T14:10:35.419Z,7.20
2023-11-19T14:13:02.323Z,7.50
2023-11-19T14:15:29.960Z,7.60
2023-11-19T14:17:56.898Z,8.02
2023-11-19T14:20:23.973Z,7.72
2023-11-19T14:22:52.609Z,6.68
2023-11-19T14:25:19.945Z,7.28
2023-11-19T14:27:47.111Z,7.38
2023-11-19T14:30:14.759Z,7.63
2023-11-19T14:32:47.145Z,7.28
2023-11-19T14:35:14.494Z,6.43
2023-11-19T14:37:41.480Z,6.47
2023-11-19T14:40:11.127Z,6.15
2023-11-19T14:42:40.305Z,6.13
2023-11-19T14:45:08.551Z,6.07
2023-11-19T14:47:35.769Z,5.97
2023-11-19T14:50:03.303Z,5.88
2023-11-19T14:52:30.294Z,6.93
2023-11-19T14:54:57.865Z,6.47
2023-11-19T14:57:24.860Z,6.95
2023-11-19T14:59:51.761Z,7.07
2023-11-19T15:02:19.298Z,7.15
2023-11-19T15:04:46.451Z,6.95
2023-11-19T15:07:13.518Z,6.78
2023-11-19T15:09:40.638Z,7.30
2023-11-19T15:12:07.669Z,7.10
2023-11-19T15:14:34.645Z,7.85
2023-11-19T15:17:02.290Z,7.47
2023-11-19T15:19:29.304Z,7.30
2023-11-19T15:21:56.412Z,7.38
2023-11-19T15:24:23.523Z,6.90
2023-11-19T15:26:50.564Z,7.57
2023-11-19T15:29:17.481Z,7.18
2023-11-19T15:31:44.503Z,7.60
2023-11-19T15:34:11.939Z,7.63
2023-11-19T15:36:38.988Z,7.55
2023-11-19T15:39:06.439Z,8.13
2023-11-19T15:41:34.210Z,7.05
2023-11-19T15:44:01.406Z,7.07
2023-11-19T15:46:28.357Z,7.75
2023-11-19T15:48:55.230Z,7.35
2023-11-19T15:51:22.210Z,7.35
2023-11-19T15:53:49.074Z,7.38
2023-11-19T15:56:16.095Z,7.40
2023-11-19T15:58:43.093Z,7.90
2023-11-19T16:01:10.181Z,6.78
2023-11-19T16:06:10.290Z,7.68
2023-11-19T16:08:40.640Z,7.80
2023-11-19T16:11:09.372Z,7.15
2023-11-19T16:13:36.511Z,8.88
2023-11-19T16:16:03.483Z,8.25
2023-11-19T16:18:30.474Z,7.40
2023-11-19T16:20:57.411Z,6.47
2023-11-19T16:23:24.693Z,6.43
2023-11-19T16:25:51.626Z,6.85
2023-11-19T16:28:18.549Z,6.05
2023-11-19T16:30:46.155Z,6.50
2023-11-19T16:33:17.596Z,6.60
2023-11-19T16:35:52.096Z,6.38
2023-11-19T16:38:19.076Z,7.07
2023-11-19T16:40:46.210Z,6.15
2023-11-19T16:43:13.839Z,6.90
2023-11-19T16:45:40.770Z,6.63
2023-11-19T16:48:08.065Z,5.95
2023-11-19T16:50:36.217Z,6.18
2023-11-19T16:53:05.228Z,6.45
2023-11-19T16:55:32.182Z,6.45
2023-11-19T16:58:00.458Z,6.15
2023-11-19T17:00:27.384Z,6.50
2023-11-19T17:02:54.413Z,6.75
2023-11-19T17:05:21.516Z,6.05
2023-11-19T17:07:49.823Z,6.72
2023-11-19T17:10:17.392Z,11.75
2023-11-19T17:12:44.276Z,6.90
2023-11-19T17:15:11.873Z,6.40
2023-11-19T17:17:39.328Z,6.50
2023-11-19T17:20:08.186Z,6.07
2023-11-19T17:22:37.105Z,7.13
2023-11-19T17:25:05.132Z,6.45
2023-11-19T17:27:32.154Z,6.95
2023-11-19T17:29:59.595Z,6.43
2023-11-19T17:32:26.954Z,6.63
2023-11-19T17:34:54.410Z,6.70
2023-11-19T17:37:21.375Z,6.03
2023-11-19T17:39:48.363Z,6.70
2023-11-19T17:42:15.406Z,6.07
2023-11-19T17:44:42.614Z,6.27
2023-11-19T17:47:09.744Z,7.18
2023-11-19T17:49:36.763Z,6.18
2023-11-19T17:52:04.680Z,6.25
2023-11-19T17:54:31.645Z,5.22
2023-11-19T17:56:58.608Z,6.30
2023-11-19T17:59:26.302Z,5.70
2023-11-19T18:02:00.641Z,5.75
2023-11-19T18:04:28.432Z,5.50
2023-11-19T18:06:56.262Z,6.00
2023-11-19T18:09:23.265Z,5.82
2023-11-19T18:11:52.139Z,6.32
2023-11-19T18:14:19.244Z,6.53
2023-11-19T18:16:46.262Z,5.57
2023-11-19T18:19:13.458Z,6.10
2023-11-19T18:21:40.622Z,6.72
2023-11-19T18:24:08.784Z,7.13
2023-11-19T18:29:06.035Z,7.55
2023-11-19T18:31:34.228Z,7.00
2023-11-19T18:34:01.444Z,9.65
2023-11-19T18:36:35.130Z,6.90
2023-11-19T18:39:02.069Z,6.70
2023-11-19T18:41:30.091Z,6.78
2023-11-19T18:43:57.536Z,7.53
2023-11-19T18:46:24.470Z,7.65
2023-11-19T18:48:53.356Z,7.68
2023-11-19T18:51:20.541Z,6.82
2023-11-19T18:53:47.857Z,7.25
2023-11-19T18:56:15.406Z,6.65
2023-11-19T18:58:42.528Z,7.07
2023-11-19T19:01:16.152Z,7.32
2023-11-19T19:03:43.411Z,7.03
2023-11-19T19:06:10.651Z,7.53
2023-11-19T19:08:37.698Z,7.57
2023-11-19T19:11:04.795Z,8.23
2023-11-19T19:13:31.709Z,10.63
2023-11-19T19:15:58.660Z,11.05
2023-11-19T19:18:27.069Z,9.48
2023-11-19T19:20:54.082Z,8.90
2023-11-19T19:23:21.124Z,9.75
2023-11-19T19:25:48.034Z,7.90
2023-11-19T19:30:45.753Z,8.60
2023-11-19T19:33:13.140Z,7.90
2023-11-19T19:35:40.428Z,8.25
2023-11-19T19:38:07.806Z,8.00
2023-11-19T19:40:34.828Z,7.93
2023-11-19T19:43:01.736Z,7.53
2023-11-19T19:45:30.293Z,7.95
2023-11-19T19:47:58.211Z,8.85
2023-11-19T19:50:25.222Z,7.60
2023-11-19T19:52:52.472Z,7.95
2023-11-19T19:55:21.968Z,8.30
2023-11-19T19:57:49.429Z,7.10
2023-11-19T20:00:17.660Z,7.13
2023-11-19T20:02:46.202Z,8.07
2023-11-19T20:05:13.819Z,6.93
2023-11-19T20:07:41.923Z,7.13
2023-11-19T20:10:12.159Z,7.25
2023-11-19T20:12:39.982Z,7.20
2023-11-19T20:15:08.240Z,7.68
2023-11-19T20:17:35.410Z,7.93
2023-11-19T20:20:04.222Z,7.40
2023-11-19T20:22:32.346Z,7.90
2023-11-19T20:24:59.474Z,7.57
2023-11-19T20:27:26.525Z,7.45
2023-11-19T20:29:54.526Z,7.93
2023-11-19T20:32:21.692Z,7.57
2023-11-19T20:34:48.677Z,7.07
2023-11-19T20:37:15.619Z,6.60
2023-11-19T20:39:42.661Z,9.10
2023-11-19T20:42:10.009Z,11.45
2023-11-19T20:44:37.817Z,25.88
2023-11-19T20:47:06.329Z,23.08
2023-11-19T20:49:33.395Z,32.10
2023-11-19T20:52:00.403Z,27.30
2023-11-19T20:56:57.097Z,14.30
2023-11-19T20:59:24.318Z,12.20
2023-11-19T21:01:51.240Z,12.27
2023-11-19T21:04:18.372Z,11.15
2023-11-19T21:09:17.130Z,8.02
2023-11-19T21:11:44.387Z,8.85
2023-11-19T21:14:11.695Z,7.25
2023-11-19T21:16:38.940Z,6.22
2023-11-19T21:19:05.944Z,6.78
2023-11-19T21:21:33.299Z,5.40
2023-11-19T21:24:00.628Z,6.30
2023-11-19T21:26:27.726Z,5.40
2023-11-19T21:28:55.469Z,5.22
2023-11-19T21:31:22.651Z,5.50
2023-11-19T21:33:49.819Z,4.93
2023-11-19T21:36:17.594Z,5.43
2023-11-19T21:38:44.526Z,5.40
2023-11-19T21:41:11.905Z,5.35
2023-11-19T21:43:38.737Z,5.88
2023-11-19T21:46:06.162Z,5.50
2023-11-19T21:48:33.209Z,6.30
2023-11-19T21:51:04.725Z,5.68
2023-11-19T21:53:31.621Z,5.80
2023-11-19T21:58:32.207Z,6.50
2023-11-19T22:00:59.695Z,5.55
2023-11-19T22:03:26.773Z,6.50
2023-11-19T22:05:53.874Z,6.80
2023-11-19T22:08:21.150Z,7.40
2023-11-19T22:10:48.078Z,7.35
2023-11-19T22:13:14.977Z,7.50
2023-11-19T22:15:42.111Z,6.93
2023-11-19T22:18:11.556Z,6.95
2023-11-19T22:20:39.081Z,7.80
2023-11-19T22:23:06.149Z,6.80
2023-11-19T22:25:33.226Z,7.32
2023-11-19T22:28:00.267Z,7.25
2023-11-19T22:30:27.258Z,6.78
2023-11-19T22:32:54.266Z,6.25
2023-11-19T22:35:21.269Z,6.22
2023-11-19T22:37:48.186Z,5.72
2023-11-19T22:40:15.482Z,5.43
2023-11-19T22:42:42.976Z,5.47
2023-11-19T22:45:10.225Z,4.85
2023-11-19T22:47:37.158Z,4.57
2023-11-19T22:50:04.949Z,4.10
2023-11-19T22:52:31.834Z,4.45
2023-11-19T22:54:59.191Z,3.50
2023-11-19T22:57:26.472Z,3.70
2023-11-19T22:59:53.490Z,3.30
2023-11-19T23:02:20.461Z,2.92
2023-11-19T23:04:47.409Z,3.20
2023-11-19T23:07:14.249Z,3.10
2023-11-19T23:09:41.388Z,3.50
2023-11-19T23:12:08.884Z,3.22
2023-11-19T23:14:35.755Z,3.30
2023-11-19T23:17:02.656Z,3.25
2023-11-19T23:19:29.608Z,3.45
2023-11-19T23:21:57.013Z,3.30
2023-11-19T23:24:23.927Z,3.25
2023-11-19T23:26:50.767Z,3.05
2023-11-19T23:29:17.680Z,3.10
2023-11-19T23:31:47.758Z,3.00
2023-11-19T23:34:14.892Z,2.90
2023-11-19T23:36:41.875Z,2.35
2023-11-19T23:39:08.829Z,2.40
2023-11-19T23:41:35.719Z,2.67
2023-11-19T23:44:02.593Z,2.60
2023-11-19T23:46:29.898Z,2.75
2023-11-19T23:49:00.341Z,2.70
2023-11-19T23:51:27.925Z,2.70
2023-11-19T23:53:55.007Z,2.75
2023-11-19T23:56:21.967Z,3.00
2023-11-19T23:58:49.233Z,3.70
